createdAt,value
2022-11-24T00:01:33.177Z,99030.78
2022-11-24T00:03:35.138Z,99034.47
2022-11-24T00:05:36.910Z,99034.47
2022-11-24T00:07:38.654Z,99033.47
2022-11-24T00:09:40.307Z,99036.16
2022-11-24T00:11:41.964Z,99041.53
2022-11-24T00:13:43.879Z,99036.16
2022-11-24T00:15:45.639Z,99033.34
2022-11-24T00:17:47.329Z,99038.84
2022-11-24T00:19:48.967Z,99029.09
2022-11-24T00:21:50.757Z,99040.69
2022-11-24T00:23:52.501Z,99044.34
2022-11-24T00:25:54.242Z,99038.97
2022-11-24T00:27:55.963Z,99040.81
2022-11-24T00:29:57.633Z,99046.19
2022-11-24T00:31:59.374Z,99051.44
2022-11-24T00:34:03.283Z,99056.94
2022-11-24T00:36:05.417Z,99053.41
2022-11-24T00:38:07.071Z,99059.63
2022-11-24T00:40:09.153Z,99055.09
2022-11-24T00:42:10.860Z,99058.78
2022-11-24T00:44:12.512Z,99066.72
2022-11-24T00:46:14.305Z,99065.00
2022-11-24T00:48:16.037Z,99065.00
2022-11-24T00:50:17.860Z,99062.47
2022-11-24T00:52:19.542Z,99065.28
2022-11-24T00:54:21.400Z,99059.91
2022-11-24T00:56:23.948Z,99065.28
2022-11-24T00:58:25.784Z,99068.94
2022-11-24T01:00:27.495Z,99066.25
2022-11-24T01:02:29.289Z,99071.63
2022-11-24T01:04:31.095Z,99076.31
2022-11-24T01:06:32.990Z,99073.63
2022-11-24T01:08:36.198Z,99074.59
2022-11-24T01:10:38.281Z,99080.97
2022-11-24T01:12:39.957Z,99081.94
2022-11-24T01:14:41.716Z,99087.31
2022-11-24T01:16:43.484Z,99084.78
2022-11-24T01:18:45.552Z,99084.78
2022-11-24T01:20:47.248Z,99092.69
2022-11-24T01:22:49.478Z,99088.31
2022-11-24T01:24:51.244Z,99084.78
2022-11-24T01:26:52.903Z,99091.00
2022-11-24T01:28:55.624Z,99086.59
2022-11-24T01:31:05.215Z,99089.28
2022-11-24T01:33:06.884Z,99091.00
2022-11-24T01:35:09.344Z,99090.28
2022-11-24T01:37:11.052Z,99092.97
2022-11-24T01:39:12.875Z,99092.13
2022-11-24T01:41:24.239Z,99090.41
2022-11-24T01:43:25.892Z,99089.56
2022-11-24T01:45:37.169Z,99092.25
2022-11-24T01:47:39.732Z,99097.63
2022-11-24T01:49:44.583Z,99093.25
2022-11-24T01:51:50.983Z,99094.94
2022-11-24T01:53:57.244Z,99103.00
2022-11-24T01:55:58.959Z,99106.69
2022-11-24T01:58:06.627Z,99101.44
2022-11-24T02:00:10.113Z,99102.28
2022-11-24T02:02:11.894Z,99112.31
2022-11-24T02:04:14.319Z,99115.88
2022-11-24T02:06:21.935Z,99112.47
2022-11-24T02:08:42.513Z,99121.50
2022-11-24T02:10:44.457Z,99129.72
2022-11-24T02:12:47.108Z,99120.94
2022-11-24T02:14:48.831Z,99128.00
2022-11-24T02:16:50.835Z,99126.31
2022-11-24T02:18:52.577Z,99129.97
2022-11-24T02:20:54.305Z,99129.97
2022-11-24T02:23:07.225Z,99134.38
2022-11-24T02:25:15.040Z,99129.13
2022-11-24T02:27:16.939Z,99129.97
2022-11-24T02:29:18.627Z,99131.69
2022-11-24T02:31:20.426Z,99134.38
2022-11-24T02:33:22.117Z,99139.75
2022-11-24T02:35:23.741Z,99131.69
2022-11-24T02:37:25.419Z,99135.34
2022-11-24T02:39:27.150Z,99134.50
2022-11-24T02:41:28.824Z,99139.03
2022-11-24T02:43:32.397Z,99139.88
2022-11-24T02:45:34.141Z,99145.25
2022-11-24T02:47:35.835Z,99146.97
2022-11-24T02:49:37.533Z,99147.81
2022-11-24T02:51:39.221Z,99154.00
2022-11-24T02:53:40.956Z,99158.53
2022-11-24T02:55:42.744Z,99156.81
2022-11-24T02:57:44.568Z,99158.53
2022-11-24T02:59:46.246Z,99156.81
2022-11-24T03:01:48.008Z,99152.31
2022-11-24T03:03:49.773Z,99152.31
2022-11-24T03:05:51.429Z,99150.59
2022-11-24T03:07:53.161Z,99152.31
2022-11-24T03:09:54.861Z,99159.38
2022-11-24T03:11:56.554Z,99157.69
2022-11-24T03:13:58.254Z,99152.44
2022-11-24T03:15:59.990Z,99150.59
2022-11-24T03:18:01.858Z,99157.94
2022-11-24T03:20:05.079Z,99160.63
2022-11-24T03:22:07.143Z,99162.47
2022-11-24T03:24:08.854Z,99165.16
2022-11-24T03:26:15.101Z,99167.84
2022-11-24T03:28:16.831Z,99167.84
2022-11-24T03:30:18.686Z,99173.22
2022-11-24T03:32:20.453Z,99168.69
2022-11-24T03:34:22.187Z,99174.06
2022-11-24T03:36:23.879Z,99168.69
2022-11-24T03:38:25.551Z,99169.69
2022-11-24T03:40:27.214Z,99162.47
2022-11-24T03:42:28.886Z,99167.84
2022-11-24T03:44:30.633Z,99174.91
2022-11-24T03:46:32.396Z,99168.69
2022-11-24T03:48:34.111Z,99172.94
2022-11-24T03:50:35.862Z,99171.97
2022-11-24T03:52:37.607Z,99181.72
2022-11-24T03:54:39.336Z,99180.88
2022-11-24T03:56:41.048Z,99182.56
2022-11-24T03:58:42.767Z,99185.66
2022-11-24T04:00:44.523Z,99192.97
2022-11-24T04:02:46.222Z,99191.53
2022-11-24T04:04:49.825Z,99191.25
2022-11-24T04:06:51.871Z,99200.06
2022-11-24T04:08:53.608Z,99183.13
2022-11-24T04:10:55.338Z,99182.00
2022-11-24T04:12:57.045Z,99186.81
2022-11-24T04:14:58.761Z,99186.28
2022-11-24T04:17:01.882Z,99187.44
2022-11-24T04:19:05.883Z,99181.53
2022-11-24T04:21:07.510Z,99182.09
2022-11-24T04:23:09.363Z,99184.34
2022-11-24T04:25:11.066Z,99189.47
2022-11-24T04:27:12.792Z,99197.25
2022-11-24T04:29:14.464Z,99198.81
2022-11-24T04:31:16.164Z,99196.00
2022-11-24T04:33:17.895Z,99202.06
2022-11-24T04:35:19.692Z,99202.78
2022-11-24T04:37:21.267Z,99203.38
2022-11-24T04:39:26.316Z,99209.59
2022-11-24T04:41:30.003Z,99210.31
2022-11-24T04:43:35.160Z,99203.94
2022-11-24T04:45:39.406Z,99207.50
2022-11-24T04:47:40.997Z,99216.25
2022-11-24T04:49:42.595Z,99220.66
2022-11-24T04:51:44.223Z,99219.66
2022-11-24T04:53:45.826Z,99224.06
2022-11-24T04:55:47.415Z,99220.38
2022-11-24T04:57:48.998Z,99229.44
2022-11-24T04:59:51.102Z,99224.91
2022-11-24T05:01:52.741Z,99221.22
2022-11-24T05:03:55.205Z,99232.84
2022-11-24T05:05:58.813Z,99232.84
2022-11-24T05:08:00.499Z,99233.69
2022-11-24T05:10:02.252Z,99238.22
2022-11-24T05:12:03.973Z,99239.91
2022-11-24T05:14:05.584Z,99249.69
2022-11-24T05:16:07.476Z,99250.66
2022-11-24T05:18:11.408Z,99256.88
2022-11-24T05:20:13.033Z,99251.50
2022-11-24T05:22:14.605Z,99255.91
2022-11-24T05:24:16.202Z,99263.97
2022-11-24T05:26:17.782Z,99263.97
2022-11-24T05:28:19.394Z,99264.81
2022-11-24T05:30:20.970Z,99268.34
2022-11-24T05:32:22.575Z,99264.81
2022-11-24T05:34:24.179Z,99276.41
2022-11-24T05:36:25.761Z,99272.75
2022-11-24T05:38:27.339Z,99278.13
2022-11-24T05:40:28.932Z,99278.13
2022-11-24T05:42:30.520Z,99273.59
2022-11-24T05:44:32.529Z,99284.34
2022-11-24T05:46:34.481Z,99282.50
2022-11-24T05:48:36.073Z,99284.34
2022-11-24T05:50:37.785Z,99286.88
2022-11-24T05:52:39.489Z,99299.34
2022-11-24T05:54:41.098Z,99298.50
2022-11-24T05:56:42.715Z,99299.47
2022-11-24T05:58:44.316Z,99300.31
2022-11-24T06:00:45.967Z,99306.41
2022-11-24T06:02:47.699Z,99308.25
2022-11-24T06:04:49.370Z,99304.72
2022-11-24T06:06:50.971Z,99311.78
2022-11-24T06:08:52.569Z,99316.34
2022-11-24T06:10:54.173Z,99318.06
2022-11-24T06:12:55.788Z,99319.88
2022-11-24T06:14:57.375Z,99318.91
2022-11-24T06:16:59.088Z,99314.34
2022-11-24T06:19:00.694Z,99325.13
2022-11-24T06:21:10.751Z,99330.50
2022-11-24T06:23:13.289Z,99339.41
2022-11-24T06:25:15.462Z,99336.72
2022-11-24T06:27:17.203Z,99336.72
2022-11-24T06:29:18.828Z,99338.44
2022-11-24T06:31:20.452Z,99342.09
2022-11-24T06:33:22.079Z,99346.50
2022-11-24T06:35:23.668Z,99349.19
2022-11-24T06:37:25.278Z,99351.88
2022-11-24T06:39:26.883Z,99348.22
2022-11-24T06:41:28.487Z,99345.53
2022-11-24T06:43:30.394Z,99342.00
2022-11-24T06:45:32.026Z,99353.59
2022-11-24T06:47:33.675Z,99347.25
2022-11-24T06:49:35.269Z,99349.94
2022-11-24T06:51:37.022Z,99352.63
2022-11-24T06:53:39.551Z,99352.63
2022-11-24T06:55:41.252Z,99352.63
2022-11-24T06:57:42.882Z,99358.84
2022-11-24T06:59:44.487Z,99360.53
2022-11-24T07:01:46.351Z,99357.00
2022-11-24T07:03:48.369Z,99360.53
2022-11-24T07:05:50.103Z,99366.75
2022-11-24T07:07:51.765Z,99365.06
2022-11-24T07:09:53.419Z,99360.53
2022-11-24T07:11:55.511Z,99367.63
2022-11-24T07:14:00.030Z,99367.63
2022-11-24T07:16:16.261Z,99368.47
2022-11-24T07:18:17.918Z,99367.63
2022-11-24T07:20:19.523Z,99368.47
2022-11-24T07:22:21.103Z,99364.06
2022-11-24T07:24:22.722Z,99357.72
2022-11-24T07:26:24.464Z,99359.41
2022-11-24T07:28:26.080Z,99363.09
2022-11-24T07:30:27.944Z,99357.72
2022-11-24T07:32:29.566Z,99360.25
2022-11-24T07:34:31.269Z,99364.78
2022-11-24T07:36:32.974Z,99369.19
2022-11-24T07:38:34.630Z,99356.72
2022-11-24T07:40:36.243Z,99362.94
2022-11-24T07:42:37.841Z,99362.09
2022-11-24T07:44:39.444Z,99361.13
2022-11-24T07:46:41.043Z,99360.13
2022-11-24T07:48:42.684Z,99361.13
2022-11-24T07:50:44.336Z,99369.91
2022-11-24T07:52:45.925Z,99365.50
2022-11-24T07:54:47.569Z,99369.91
2022-11-24T07:56:49.298Z,99362.81
2022-11-24T07:58:52.946Z,99369.03
2022-11-24T08:00:54.861Z,99372.63
2022-11-24T08:02:56.467Z,99363.66
2022-11-24T08:04:58.103Z,99367.22
2022-11-24T08:06:59.706Z,99379.69
2022-11-24T08:09:01.313Z,99381.53
2022-11-24T08:11:07.349Z,99387.75
2022-11-24T08:13:08.928Z,99393.13
2022-11-24T08:15:11.359Z,99387.75
2022-11-24T08:17:13.262Z,99387.75
2022-11-24T08:19:14.922Z,99389.44
2022-11-24T08:21:16.647Z,99395.81
2022-11-24T08:23:18.306Z,99399.34
2022-11-24T08:25:19.956Z,99402.03
2022-11-24T08:27:21.626Z,99408.25
2022-11-24T08:29:23.229Z,99404.72
2022-11-24T08:31:25.294Z,99416.34
2022-11-24T08:33:26.957Z,99410.94
2022-11-24T08:35:28.936Z,99416.34
2022-11-24T08:37:30.668Z,99421.72
2022-11-24T08:39:32.840Z,99423.44
2022-11-24T08:41:34.517Z,99414.53
2022-11-24T08:43:36.290Z,99425.13
2022-11-24T08:45:41.329Z,99435.88
2022-11-24T08:47:43.516Z,99429.66
2022-11-24T08:49:45.181Z,99432.34
2022-11-24T08:51:46.867Z,99436.75
2022-11-24T08:53:48.491Z,99435.03
2022-11-24T08:55:50.186Z,99446.63
2022-11-24T08:57:51.830Z,99444.81
2022-11-24T08:59:53.435Z,99448.34
2022-11-24T09:01:55.101Z,99452.91
2022-11-24T09:03:56.878Z,99452.00
2022-11-24T09:05:58.575Z,99463.66
2022-11-24T09:08:00.181Z,99453.75
2022-11-24T09:10:02.073Z,99459.13
2022-11-24T09:12:03.846Z,99460.09
2022-11-24T09:14:05.437Z,99466.34
2022-11-24T09:16:11.651Z,99469.88
2022-11-24T09:18:13.243Z,99469.88
2022-11-24T09:20:14.952Z,99464.50
2022-11-24T09:22:16.545Z,99464.50
2022-11-24T09:24:18.136Z,99465.34
2022-11-24T09:26:24.237Z,99464.50
2022-11-24T09:28:25.882Z,99470.72
2022-11-24T09:30:28.212Z,99464.50
2022-11-24T09:32:30.173Z,99463.50
2022-11-24T09:34:31.778Z,99454.72
2022-11-24T09:36:33.591Z,99460.81
2022-11-24T09:38:35.417Z,99459.97
2022-11-24T09:40:36.999Z,99460.81
2022-11-24T09:43:34.041Z,99461.66
2022-11-24T09:46:12.902Z,99450.06
2022-11-24T09:48:26.166Z,99460.81
2022-11-24T09:50:33.414Z,99466.19
2022-11-24T09:52:53.506Z,99459.13
2022-11-24T09:54:57.718Z,99468.88
2022-11-24T09:57:00.490Z,99471.56
2022-11-24T09:59:21.784Z,99465.22
2022-11-24T10:01:44.203Z,99462.53
2022-11-24T10:03:47.684Z,99455.44
2022-11-24T10:05:49.836Z,99459.84
2022-11-24T10:08:08.496Z,99461.66
2022-11-24T10:10:22.888Z,99450.91
2022-11-24T10:12:49.934Z,99461.66
2022-11-24T10:14:55.337Z,99461.66
2022-11-24T10:16:56.700Z,99460.69
2022-11-24T10:19:04.669Z,99461.66
2022-11-24T10:21:30.967Z,99471.56
2022-11-24T10:24:00.030Z,99476.94
2022-11-24T10:26:01.721Z,99476.09
2022-11-24T10:28:04.816Z,99487.69
2022-11-24T10:30:22.613Z,99476.94
2022-11-24T10:32:35.257Z,99489.44
2022-11-24T10:34:44.557Z,99485.00
2022-11-24T10:37:01.605Z,99486.75
2022-11-24T10:39:30.617Z,99487.69
2022-11-24T10:41:38.153Z,99493.94
2022-11-24T10:43:40.933Z,99493.09
2022-11-24T10:45:42.541Z,99497.63
2022-11-24T10:47:44.403Z,99503.84
2022-11-24T10:49:55.035Z,99504.69
2022-11-24T10:52:20.203Z,99498.47
2022-11-24T10:54:23.292Z,99503.00
2022-11-24T10:56:24.968Z,99495.78
2022-11-24T10:58:37.087Z,99503.84
2022-11-24T11:00:39.487Z,99505.69
2022-11-24T11:02:41.189Z,99504.84
2022-11-24T11:04:42.848Z,99503.84
2022-11-24T11:06:44.505Z,99503.84
2022-11-24T11:08:46.217Z,99506.53
2022-11-24T11:11:07.696Z,99498.47
2022-11-24T11:13:28.649Z,99498.47
2022-11-24T11:15:30.833Z,99498.47
2022-11-24T11:17:36.756Z,99497.63
2022-11-24T11:20:01.685Z,99514.59
2022-11-24T11:22:10.180Z,99500.19
2022-11-24T11:24:15.974Z,99510.06
2022-11-24T11:26:19.261Z,99514.59
2022-11-24T11:28:28.037Z,99513.75
2022-11-24T11:35:18.517Z,99516.31
2022-11-24T11:37:20.818Z,99510.94
2022-11-24T11:39:41.343Z,99510.94
2022-11-24T11:41:45.622Z,99507.38
2022-11-24T11:43:47.367Z,99504.69
2022-11-24T11:45:56.274Z,99501.16
2022-11-24T11:48:01.019Z,99504.69
2022-11-24T11:50:02.634Z,99508.25
2022-11-24T11:52:36.604Z,99511.78
2022-11-24T11:54:51.325Z,99515.44
2022-11-24T11:57:06.565Z,99524.41
2022-11-24T11:59:39.219Z,99527.94
2022-11-24T12:02:05.196Z,99527.09
2022-11-24T12:04:37.069Z,99516.31
2022-11-24T12:06:57.184Z,99519.84
2022-11-24T12:09:31.691Z,99499.31
2022-11-24T12:11:47.804Z,99510.94
2022-11-24T12:14:07.127Z,99504.69
2022-11-24T12:16:38.197Z,99497.50
2022-11-24T12:18:59.285Z,99501.88
2022-11-24T12:21:30.015Z,99506.41
2022-11-24T12:23:45.261Z,99513.47
2022-11-24T12:25:52.656Z,99518.03
2022-11-24T12:28:14.787Z,99529.63
2022-11-24T12:30:16.857Z,99538.69
2022-11-24T12:32:55.881Z,99543.06
2022-11-24T12:35:06.508Z,99530.47
2022-11-24T12:37:37.106Z,99555.69
2022-11-24T12:39:44.329Z,99564.47
2022-11-24T12:42:03.952Z,99558.09
2022-11-24T12:44:05.557Z,99562.50
2022-11-24T12:46:28.375Z,99562.50
2022-11-24T12:48:32.924Z,99563.34
2022-11-24T12:50:37.956Z,99554.28
2022-11-24T12:52:58.819Z,99553.44
2022-11-24T12:55:00.740Z,99549.78
2022-11-24T12:57:37.938Z,99565.91
2022-11-24T12:59:52.875Z,99563.22
2022-11-24T13:02:23.296Z,99568.47
2022-11-24T13:04:47.980Z,99567.34
2022-11-24T13:06:54.345Z,99572.47
2022-11-24T13:08:56.024Z,99568.66
2022-11-24T13:11:21.620Z,99573.78
2022-11-24T13:13:30.692Z,99578.75
2022-11-24T13:18:48.957Z,99583.34
2022-11-24T13:20:50.603Z,99588.19
2022-11-24T13:22:56.120Z,99594.03
2022-11-24T13:25:33.489Z,99595.47
2022-11-24T13:27:43.087Z,99590.38
2022-11-24T13:29:49.226Z,99599.66
2022-11-24T13:31:51.015Z,99606.47
2022-11-24T13:33:52.824Z,99607.78
2022-11-24T13:36:03.273Z,99606.50
2022-11-24T13:38:40.166Z,99611.50
2022-11-24T13:40:49.827Z,99612.94
2022-11-24T13:43:01.729Z,99612.53
2022-11-24T13:45:05.135Z,99618.63
2022-11-24T13:47:32.835Z,99619.06
2022-11-24T13:49:41.263Z,99615.13
2022-11-24T13:51:42.995Z,99621.06
2022-11-24T13:53:45.861Z,99621.66
2022-11-24T13:55:59.239Z,99628.50
2022-11-24T13:58:25.800Z,99621.09
2022-11-24T14:00:35.363Z,99631.63
2022-11-24T14:02:37.181Z,99632.19
2022-11-24T14:04:38.926Z,99634.75
2022-11-24T14:06:44.545Z,99636.44
2022-11-24T14:08:46.201Z,99642.72
2022-11-24T14:10:49.551Z,99642.53
2022-11-24T14:13:24.416Z,99650.34
2022-11-24T14:15:27.122Z,99645.84
2022-11-24T14:17:28.958Z,99650.13
2022-11-24T14:19:32.218Z,99645.44
2022-11-24T14:21:38.542Z,99648.88
2022-11-24T14:23:42.011Z,99647.84
2022-11-24T14:25:50.210Z,99650.44
2022-11-24T14:27:52.139Z,99643.91
2022-11-24T14:30:02.108Z,99651.00
2022-11-24T14:32:04.033Z,99651.69
2022-11-24T14:34:11.967Z,99654.13
2022-11-24T14:36:17.033Z,99658.66
2022-11-24T14:38:18.769Z,99657.69
2022-11-24T14:40:49.035Z,99661.22
2022-11-24T14:42:50.780Z,99659.25
2022-11-24T14:44:59.901Z,99664.63
2022-11-24T14:47:05.438Z,99658.13
2022-11-24T14:49:07.165Z,99658.97
2022-11-24T14:51:18.186Z,99661.53
2022-11-24T14:53:24.731Z,99660.41
2022-11-24T14:55:32.153Z,99657.53
2022-11-24T14:57:35.303Z,99662.09
2022-11-24T14:59:37.092Z,99653.69
2022-11-24T15:01:38.868Z,99654.41
2022-11-24T15:03:40.590Z,99645.34
2022-11-24T15:05:58.696Z,99661.53
2022-11-24T15:08:01.855Z,99652.44
2022-11-24T15:10:05.965Z,99651.72
2022-11-24T15:12:10.939Z,99649.19
2022-11-24T15:14:51.637Z,99655.56
2022-11-24T15:16:53.704Z,99656.81
2022-11-24T15:19:00.137Z,99650.03
2022-11-24T15:21:01.858Z,99661.94
2022-11-24T15:23:23.781Z,99664.91
2022-11-24T15:25:32.855Z,99663.34
2022-11-24T15:27:34.583Z,99683.34
2022-11-24T15:29:36.278Z,99684.47
2022-11-24T15:31:39.264Z,99687.28
2022-11-24T15:33:41.267Z,99678.34
2022-11-24T15:35:43.226Z,99683.91
2022-11-24T15:37:46.171Z,99683.91
2022-11-24T15:39:47.854Z,99698.34
2022-11-24T15:41:49.610Z,99694.69
2022-11-24T15:43:51.294Z,99700.94
2022-11-24T15:45:53.044Z,99700.09
2022-11-24T15:47:54.896Z,99700.94
2022-11-24T15:49:56.617Z,99693.69
2022-11-24T15:51:58.393Z,99698.06
2022-11-24T15:54:01.454Z,99699.06
2022-11-24T15:56:03.952Z,99708.84
2022-11-24T15:58:05.830Z,99698.94
2022-11-24T16:00:08.278Z,99701.50
2022-11-24T16:02:10.085Z,99700.66
2022-11-24T16:04:11.860Z,99714.00
2022-11-24T16:06:19.098Z,99712.03
2022-11-24T16:08:25.371Z,99709.31
2022-11-24T16:10:30.278Z,99715.41
2022-11-24T16:12:31.947Z,99717.69
2022-11-24T16:14:34.606Z,99709.34
2022-11-24T16:16:36.664Z,99714.31
2022-11-24T16:18:38.532Z,99718.28
2022-11-24T16:20:40.278Z,99720.28
2022-11-24T16:22:41.974Z,99722.44
2022-11-24T16:24:44.268Z,99722.16
2022-11-24T16:26:45.955Z,99721.75
2022-11-24T16:28:48.975Z,99714.50
2022-11-24T16:30:50.938Z,99725.03
2022-11-24T16:32:53.626Z,99726.16
2022-11-24T16:34:55.912Z,99720.59
2022-11-24T16:36:57.605Z,99735.81
2022-11-24T16:38:59.977Z,99726.59
2022-11-24T16:41:01.691Z,99731.72
2022-11-24T16:43:03.496Z,99732.59
2022-11-24T16:45:05.673Z,99738.00
2022-11-24T16:47:08.227Z,99739.81
2022-11-24T16:49:09.998Z,99748.63
2022-11-24T16:51:11.900Z,99749.63
2022-11-24T16:53:13.700Z,99750.19
2022-11-24T16:55:15.377Z,99748.50
2022-11-24T16:57:17.079Z,99746.34
2022-11-24T16:59:18.857Z,99758.72
2022-11-24T17:01:21.436Z,99752.22
2022-11-24T17:03:23.205Z,99756.91
2022-11-24T17:05:25.485Z,99747.66
2022-11-24T17:07:27.277Z,99761.56
2022-11-24T17:09:37.375Z,99761.72
2022-11-24T17:11:41.888Z,99764.28
2022-11-24T17:13:44.393Z,99766.13
2022-11-24T17:15:51.015Z,99758.75
2022-11-24T17:18:22.825Z,99765.13
2022-11-24T17:20:17.319Z,99757.88
2022-11-24T17:22:19.026Z,99765.97
2022-11-24T17:24:20.719Z,99767.81
2022-11-24T17:26:22.384Z,99768.13
2022-11-24T17:28:24.059Z,99761.88
2022-11-24T17:30:25.772Z,99759.16
2022-11-24T17:32:27.474Z,99763.25
2022-11-24T17:34:29.150Z,99761.00
2022-11-24T17:36:31.539Z,99758.75
2022-11-24T17:38:33.311Z,99766.97
2022-11-24T17:40:35.008Z,99765.97
2022-11-24T17:42:36.753Z,99765.97
2022-11-24T17:44:38.499Z,99760.72
2022-11-24T17:46:40.946Z,99764.69
2022-11-24T17:48:42.733Z,99765.53
2022-11-24T17:50:44.434Z,99773.09
2022-11-24T17:52:46.137Z,99765.50
2022-11-24T17:54:47.850Z,99767.63
2022-11-24T17:56:49.550Z,99777.25
2022-11-24T17:59:00.372Z,99776.25
2022-11-24T18:01:02.187Z,99774.81
2022-11-24T18:03:04.067Z,99779.16
2022-11-24T18:05:05.907Z,99777.16
2022-11-24T18:07:07.791Z,99783.25
2022-11-24T18:09:09.644Z,99793.56
2022-11-24T18:11:21.262Z,99790.78
2022-11-24T18:13:48.740Z,99787.03
2022-11-24T18:15:49.008Z,99795.56
2022-11-24T18:17:54.132Z,99793.25
2022-11-24T18:19:56.315Z,99792.66
2022-11-24T18:21:58.092Z,99791.22
2022-11-24T18:23:59.788Z,99788.06
2022-11-24T18:26:04.835Z,99792.72
2022-11-24T18:28:06.503Z,99792.56
2022-11-24T18:30:08.554Z,99792.78
2022-11-24T18:32:10.383Z,99794.78
2022-11-24T18:34:12.100Z,99798.19
2022-11-24T18:36:18.578Z,99801.59
2022-11-24T18:38:20.190Z,99801.09
2022-11-24T18:40:21.863Z,99805.97
2022-11-24T18:42:23.511Z,99794.91
2022-11-24T18:44:25.346Z,99807.72
2022-11-24T18:46:27.087Z,99802.66
2022-11-24T18:48:28.756Z,99804.81
2022-11-24T18:50:30.447Z,99806.50
2022-11-24T18:52:32.228Z,99803.28
2022-11-24T18:54:35.648Z,99805.47
2022-11-24T18:56:38.493Z,99803.94
2022-11-24T18:58:40.357Z,99800.72
2022-11-24T19:00:42.108Z,99809.63
2022-11-24T19:02:43.909Z,99809.13
2022-11-24T19:04:45.588Z,99812.53
2022-11-24T19:06:47.297Z,99810.13
2022-11-24T19:08:49.031Z,99813.28
2022-11-24T19:10:50.645Z,99811.56
2022-11-24T19:12:52.698Z,99807.16
2022-11-24T19:14:54.654Z,99803.75
2022-11-24T19:16:56.415Z,99810.84
2022-11-24T19:18:58.652Z,99807.16
2022-11-24T19:21:00.345Z,99808.31
2022-11-24T19:23:02.643Z,99808.31
2022-11-24T19:25:04.772Z,99812.81
2022-11-24T19:27:06.569Z,99806.00
2022-11-24T19:29:08.389Z,99812.13
2022-11-24T19:31:11.659Z,99820.22
2022-11-24T19:33:13.481Z,99819.50
2022-11-24T19:35:15.288Z,99819.91
2022-11-24T19:37:17.008Z,99824.97
2022-11-24T19:39:18.632Z,99817.28
2022-11-24T19:41:21.235Z,99812.59
2022-11-24T19:43:22.859Z,99809.53
2022-11-24T19:45:24.580Z,99814.31
2022-11-24T19:47:26.412Z,99822.97
2022-11-24T19:49:28.067Z,99824.19
2022-11-24T19:51:31.323Z,99820.22
2022-11-24T19:53:33.413Z,99819.59
2022-11-24T19:55:35.073Z,99823.53
2022-11-24T19:57:36.884Z,99831.78
2022-11-24T19:59:38.624Z,99822.38
2022-11-24T20:01:40.504Z,99815.28
2022-11-24T20:03:42.933Z,99813.09
2022-11-24T20:05:44.657Z,99819.50
2022-11-24T20:07:46.496Z,99820.72
2022-11-24T20:09:48.200Z,99824.53
2022-11-24T20:11:49.870Z,99824.53
2022-11-24T20:13:51.527Z,99818.53
2022-11-24T20:15:53.228Z,99815.00
2022-11-24T20:17:54.956Z,99820.53
2022-11-24T20:19:56.656Z,99820.78
2022-11-24T20:21:58.340Z,99829.97
2022-11-24T20:24:05.241Z,99827.41
2022-11-24T20:26:09.638Z,99824.97
2022-11-24T20:28:11.101Z,99826.09
2022-11-24T20:30:13.101Z,99830.88
2022-11-24T20:32:14.872Z,99827.44
2022-11-24T20:34:16.653Z,99836.38
2022-11-24T20:36:20.012Z,99833.94
2022-11-24T20:38:21.670Z,99841.28
2022-11-24T20:40:23.400Z,99839.56
2022-11-24T20:42:25.081Z,99837.88
2022-11-24T20:44:26.884Z,99837.03
2022-11-24T20:46:30.342Z,99846.06
2022-11-24T20:48:32.048Z,99848.03
2022-11-24T20:50:36.311Z,99844.47
2022-11-24T20:52:38.000Z,99846.31
2022-11-24T20:54:39.715Z,99842.91
2022-11-24T20:56:42.685Z,99844.88
2022-11-24T20:58:44.550Z,99851.25
2022-11-24T21:00:46.255Z,99846.81
2022-11-24T21:02:48.159Z,99848.78
2022-11-24T21:04:49.974Z,99851.47
2022-11-24T21:06:51.697Z,99849.78
2022-11-24T21:08:53.482Z,99855.16
2022-11-24T21:10:55.961Z,99849.06
2022-11-24T21:12:57.647Z,99848.19
2022-11-24T21:14:59.405Z,99862.63
2022-11-24T21:17:01.115Z,99860.94
2022-11-24T21:19:04.778Z,99860.81
2022-11-24T21:21:06.686Z,99860.09
2022-11-24T21:23:08.401Z,99869.13
2022-11-24T21:25:10.115Z,99869.13
2022-11-24T21:27:11.832Z,99874.50
2022-11-24T21:29:14.150Z,99879.19
2022-11-24T21:31:17.418Z,99874.66
2022-11-24T21:33:19.170Z,99877.56
2022-11-24T21:35:20.862Z,99882.94
2022-11-24T21:37:22.543Z,99881.00
2022-11-24T21:39:24.350Z,99888.09
2022-11-24T21:41:27.146Z,99891.53
2022-11-24T21:43:29.333Z,99889.69
2022-11-24T21:45:31.038Z,99892.38
2022-11-24T21:47:32.755Z,99892.38
2022-11-24T21:49:34.459Z,99885.25
2022-11-24T21:51:36.110Z,99887.94
2022-11-24T21:53:37.922Z,99889.78
2022-11-24T21:55:39.606Z,99883.56
2022-11-24T21:57:41.312Z,99883.56
2022-11-24T21:59:43.010Z,99883.56
2022-11-24T22:01:44.747Z,99886.38
2022-11-24T22:03:46.496Z,99888.31
2022-11-24T22:05:59.185Z,99904.47
2022-11-24T22:08:00.870Z,99906.31
2022-11-24T22:10:02.558Z,99900.19
2022-11-24T22:12:04.402Z,99901.19
2022-11-24T22:14:06.149Z,99900.34
2022-11-24T22:16:09.837Z,99899.63
2022-11-24T22:18:11.796Z,99900.72
2022-11-24T22:20:13.510Z,99899.84
2022-11-24T22:22:15.235Z,99902.69
2022-11-24T22:24:16.902Z,99893.03
2022-11-24T22:26:20.184Z,99903.63
2022-11-24T22:28:21.922Z,99900.09
2022-11-24T22:30:23.588Z,99900.94
2022-11-24T22:32:25.343Z,99900.09
2022-11-24T22:34:27.074Z,99897.56
2022-11-24T22:36:29.478Z,99901.22
2022-11-24T22:38:31.347Z,99901.31
2022-11-24T22:40:33.016Z,99902.31
2022-11-24T22:42:34.766Z,99897.78
2022-11-24T22:44:36.769Z,99909.28
2022-11-24T22:46:38.648Z,99905.84
2022-11-24T22:48:40.517Z,99919.06
2022-11-24T22:50:42.156Z,99913.69
2022-11-24T22:52:43.849Z,99919.06
2022-11-24T22:54:45.551Z,99911.13
2022-11-24T22:56:47.359Z,99913.91
2022-11-24T22:58:49.239Z,99910.50
2022-11-24T23:00:50.934Z,99915.88
2022-11-24T23:02:54.256Z,99914.19
2022-11-24T23:04:56.072Z,99917.84
2022-11-24T23:06:57.754Z,99917.97
2022-11-24T23:09:00.100Z,99916.25
2022-11-24T23:11:06.066Z,99920.66
2022-11-24T23:13:07.761Z,99920.53
2022-11-24T23:15:09.801Z,99913.44
2022-11-24T23:17:11.517Z,99918.81
2022-11-24T23:19:13.237Z,99917.25
2022-11-24T23:21:16.728Z,99917.25
2022-11-24T23:23:18.512Z,99923.63
2022-11-24T23:25:20.182Z,99918.44
2022-11-24T23:27:21.986Z,99931.06
2022-11-24T23:29:23.705Z,99935.59
2022-11-24T23:31:26.237Z,99933.75
2022-11-24T23:33:28.020Z,99935.34
2022-11-24T23:35:29.715Z,99936.19
2022-11-24T23:37:52.097Z,99946.94
2022-11-24T23:39:53.027Z,99945.25
2022-11-24T23:41:54.764Z,99951.47
2022-11-24T23:43:56.486Z,99952.31
2022-11-24T23:46:16.620Z,99956.00
2022-11-24T23:48:18.392Z,99951.72
2022-11-24T23:50:20.072Z,99954.53
2022-11-24T23:52:21.777Z,99951.84
2022-11-24T23:54:23.487Z,99949.16
2022-11-24T23:56:29.817Z,99948.03
2022-11-24T23:58:31.764Z,99949.88
